Time;durP1;ratioP1;P1;durP2;ratioP2;P2;SDS_P1;SDS_P2;PMS_P1;PMS_P2;Temp;Humidity;BMP_temperature;BMP_pressure;BME280_temperature;BME280_humidity;BME280_pressure;Samples;Min_cycle;Max_cycle;Signal;HPM_P1;HPM_P2
2021/05/11 00:02:24;;;;;;;3.80;1.80;;;19.80;44.70;;;;;;5093280;28;20029;-70
2021/05/11 00:04:49;;;;;;;4.57;2.03;;;19.80;44.70;;;;;;5093201;28;20028;-70
2021/05/11 00:07:15;;;;;;;3.72;2.10;;;19.80;44.70;;;;;;5093375;28;20028;-70
2021/05/11 00:09:41;;;;;;;4.75;2.08;;;19.70;44.70;;;;;;5093408;28;20384;-70
2021/05/11 00:12:07;;;;;;;3.15;1.60;;;19.80;44.70;;;;;;5093120;28;20504;-70
2021/05/11 00:14:33;;;;;;;5.40;2.45;;;19.80;44.70;;;;;;5093349;28;20024;-69
2021/05/11 00:16:58;;;;;;;4.28;2.20;;;19.80;44.60;;;;;;5093302;28;20027;-70
2021/05/11 00:19:26;;;;;;;4.80;2.38;;;19.80;44.70;;;;;;5093862;28;20032;-70
2021/05/11 00:21:52;;;;;;;5.43;2.45;;;19.80;44.70;;;;;;5097001;28;20531;-70
2021/05/11 00:24:17;;;;;;;4.75;2.00;;;19.70;44.70;;;;;;5096634;28;20098;-70
2021/05/11 00:26:43;;;;;;;3.95;1.88;;;19.70;44.70;;;;;;5097045;28;20111;-70
2021/05/11 00:29:09;;;;;;;4.63;1.95;;;19.70;44.60;;;;;;5097319;28;20051;-69
2021/05/11 00:31:34;;;;;;;4.10;2.10;;;19.70;44.70;;;;;;5102403;28;20555;-71
2021/05/11 00:34:00;;;;;;;4.97;2.05;;;19.70;44.70;;;;;;5107176;28;20028;-70
2021/05/11 00:36:25;;;;;;;4.68;2.00;;;19.70;44.70;;;;;;5096867;28;20020;-70
2021/05/11 00:38:51;;;;;;;7.07;2.88;;;19.70;44.70;;;;;;5096809;28;20162;-70
2021/05/11 00:41:17;;;;;;;5.18;2.05;;;19.70;44.70;;;;;;5096887;28;20028;-70
2021/05/11 00:43:43;;;;;;;4.47;2.08;;;19.70;44.70;;;;;;5096671;28;20027;-70
2021/05/11 00:46:09;;;;;;;5.25;2.15;;;19.70;44.70;;;;;;5096667;28;20025;-70
2021/05/11 00:48:35;;;;;;;3.75;1.90;;;19.70;44.70;;;;;;5096561;28;20016;-70
2021/05/11 00:51:03;;;;;;;4.72;2.17;;;19.70;44.70;;;;;;5096592;28;20031;-70
2021/05/11 00:53:29;;;;;;;4.60;1.85;;;19.70;44.70;;;;;;5096894;28;20360;-70
2021/05/11 00:55:55;;;;;;;3.55;1.73;;;19.70;44.70;;;;;;5096113;28;20030;-70
2021/05/11 00:58:21;;;;;;;6.43;1.85;;;19.70;44.70;;;;;;5095971;28;20118;-70
2021/05/11 01:00:46;;;;;;;4.72;2.50;;;19.70;44.70;;;;;;5096192;28;20024;-70
2021/05/11 01:03:12;;;;;;;4.70;2.00;;;19.70;44.70;;;;;;5096711;28;20024;-70
2021/05/11 01:05:37;;;;;;;3.53;1.73;;;19.60;44.70;;;;;;5096308;28;20048;-70
2021/05/11 01:08:03;;;;;;;3.75;1.83;;;19.60;44.80;;;;;;5096357;28;20027;-70
2021/05/11 01:10:29;;;;;;;4.00;2.05;;;19.60;44.80;;;;;;5096077;28;20025;-70
2021/05/11 01:12:54;;;;;;;3.05;1.70;;;19.60;44.80;;;;;;5096211;28;20028;-70
2021/05/11 01:15:20;;;;;;;4.10;2.00;;;19.60;44.80;;;;;;5095936;28;20379;-70
2021/05/11 01:17:59;;;;;;;4.90;2.30;;;19.60;44.80;;;;;;5094398;28;20024;-70
2021/05/11 01:20:28;;;;;;;4.35;1.80;;;19.60;44.80;;;;;;5095730;28;20028;-70
2021/05/11 01:25:27;;;;;;;4.35;1.92;;;19.60;44.90;;;;;;5095668;28;20377;-70
2021/05/11 01:28:42;;;;;;;5.05;2.10;;;19.60;44.90;;;;;;5095746;28;20059;-70
2021/05/11 01:31:08;;;;;;;4.50;1.90;;;19.60;44.90;;;;;;5091976;28;20150;-70
2021/05/11 01:47:29;;;;;;;4.60;2.13;;;19.50;44.90;;;;;;5096338;28;20573;-70
2021/05/11 02:18:11;;;;;;;4.25;1.95;;;19.50;45.20;;;;;;5094096;28;20031;-70
2021/05/11 02:23:25;;;;;;;4.38;2.17;;;19.50;45.20;;;;;;5094158;28;20036;-70
2021/05/11 02:25:50;;;;;;;4.18;2.00;;;19.50;45.20;;;;;;5093899;28;20032;-70
2021/05/11 02:28:16;;;;;;;5.10;2.53;;;19.50;45.20;;;;;;5093816;28;20033;-70
2021/05/11 02:30:42;;;;;;;5.07;2.33;;;19.50;45.30;;;;;;5093892;28;20459;-71
2021/05/11 02:33:08;;;;;;;4.20;2.10;;;19.50;45.20;;;;;;5093767;28;20093;-71
2021/05/11 02:35:34;;;;;;;4.47;2.08;;;19.50;45.20;;;;;;5093705;28;20024;-71
2021/05/11 02:38:00;;;;;;;4.10;2.13;;;19.50;45.30;;;;;;5093608;28;20455;-71
2021/05/11 02:40:26;;;;;;;5.90;2.40;;;19.50;45.20;;;;;;5094305;28;20122;-70
2021/05/11 02:42:57;;;;;;;4.90;1.90;;;19.50;45.20;;;;;;5093614;28;20058;-70
2021/05/11 02:45:23;;;;;;;4.20;2.20;;;19.50;45.30;;;;;;5094502;28;20028;-70
2021/05/11 02:47:49;;;;;;;5.20;2.47;;;19.50;45.30;;;;;;5094423;28;20024;-71
2021/05/11 02:50:19;;;;;;;4.25;2.10;;;19.50;45.30;;;;;;5094194;28;20349;-70
2021/05/11 02:52:45;;;;;;;4.32;2.10;;;19.50;45.30;;;;;;5093940;28;20059;-71
2021/05/11 02:55:12;;;;;;;4.28;2.00;;;19.50;45.30;;;;;;5093772;28;20036;-70
2021/05/11 02:57:38;;;;;;;4.05;1.73;;;19.50;45.30;;;;;;5093729;28;20113;-70
2021/05/11 03:00:05;;;;;;;4.65;2.17;;;19.50;45.40;;;;;;5094088;28;20060;-71
2021/05/11 03:02:31;;;;;;;3.65;1.80;;;19.50;45.40;;;;;;5093638;28;20058;-70
2021/05/11 03:04:57;;;;;;;5.70;2.30;;;19.50;45.40;;;;;;5093565;28;20055;-70
2021/05/11 03:07:22;;;;;;;4.28;1.98;;;19.50;45.40;;;;;;5093659;28;20123;-70
2021/05/11 03:09:48;;;;;;;4.10;1.77;;;19.50;45.40;;;;;;5093630;28;20039;-70
2021/05/11 03:12:13;;;;;;;3.25;1.73;;;19.50;45.50;;;;;;5093532;28;20076;-70
2021/05/11 03:14:39;;;;;;;4.82;2.55;;;19.40;45.50;;;;;;5093822;28;20129;-70
2021/05/11 03:17:05;;;;;;;6.32;2.20;;;19.50;45.40;;;;;;5093933;28;20032;-71
2021/05/11 03:19:30;;;;;;;4.30;2.08;;;19.50;45.50;;;;;;5094181;28;20377;-71
2021/05/11 03:21:56;;;;;;;4.22;1.98;;;19.50;45.50;;;;;;5092447;28;20028;-69
2021/05/11 03:24:21;;;;;;;4.65;2.15;;;19.50;45.60;;;;;;5093808;28;20051;-70
2021/05/11 03:26:47;;;;;;;3.95;2.10;;;19.40;45.50;;;;;;5094038;28;20028;-70
2021/05/11 03:29:12;;;;;;;4.35;2.03;;;19.50;45.50;;;;;;5093758;28;20051;-70
2021/05/11 03:31:38;;;;;;;4.63;2.00;;;19.40;45.50;;;;;;5093608;28;20518;-71
2021/05/11 03:34:04;;;;;;;4.40;2.00;;;19.50;45.60;;;;;;5093463;28;20491;-70
2021/05/11 03:36:29;;;;;;;5.50;2.15;;;19.40;45.60;;;;;;5093522;28;20543;-70
2021/05/11 03:38:56;;;;;;;5.40;2.55;;;19.40;45.60;;;;;;5093295;28;20040;-70
2021/05/11 03:41:28;;;;;;;4.93;2.13;;;19.40;45.60;;;;;;5092151;28;20023;-70
2021/05/11 03:43:59;;;;;;;4.18;1.92;;;19.40;45.60;;;;;;5098736;28;20024;-70
2021/05/11 03:46:24;;;;;;;3.20;1.80;;;19.40;45.60;;;;;;5094002;28;20096;-70
2021/05/11 03:48:50;;;;;;;3.67;1.85;;;19.40;45.70;;;;;;5093471;28;20464;-71
2021/05/11 03:51:16;;;;;;;3.58;1.85;;;19.40;45.70;;;;;;5093240;28;20032;-70
2021/05/11 03:53:43;;;;;;;4.25;1.95;;;19.40;45.70;;;;;;5095304;28;20059;-70
2021/05/11 03:56:08;;;;;;;5.47;1.80;;;19.40;45.70;;;;;;5097718;28;20028;-70
2021/05/11 03:58:34;;;;;;;4.03;1.92;;;19.40;45.70;;;;;;5097259;28;20032;-70
2021/05/11 04:01:00;;;;;;;4.00;1.83;;;19.40;45.70;;;;;;5097234;28;20024;-70
2021/05/11 04:03:25;;;;;;;4.28;2.30;;;19.40;45.70;;;;;;5096885;28;20134;-70
2021/05/11 04:05:53;;;;;;;5.13;1.95;;;19.40;45.70;;;;;;5096957;28;20487;-70
2021/05/11 04:08:44;;;;;;;4.90;1.98;;;19.40;45.80;;;;;;5096797;28;20032;-70
2021/05/11 04:14:01;;;;;;;3.25;1.77;;;19.40;45.80;;;;;;5086293;28;20093;-70
2021/05/11 04:16:28;;;;;;;4.97;2.08;;;19.40;45.80;;;;;;5097775;28;20273;-71
2021/05/11 04:18:54;;;;;;;4.90;2.00;;;19.40;45.80;;;;;;5097713;28;20036;-70
2021/05/11 04:21:21;;;;;;;4.97;2.13;;;19.40;45.90;;;;;;5097015;28;20016;-70
2021/05/11 04:23:49;;;;;;;4.28;2.05;;;19.40;45.90;;;;;;5096661;28;20074;-70
2021/05/11 04:26:14;;;;;;;5.57;2.70;;;19.40;45.90;;;;;;5097116;28;20020;-71
2021/05/11 04:28:40;;;;;;;5.28;2.25;;;19.40;45.90;;;;;;5097338;28;20462;-70
2021/05/11 04:31:07;;;;;;;4.25;1.98;;;19.40;45.90;;;;;;5097150;28;20024;-70
2021/05/11 04:33:33;;;;;;;4.75;1.83;;;19.30;45.90;;;;;;5097043;28;20019;-70
2021/05/11 04:36:00;;;;;;;4.05;1.90;;;19.40;45.90;;;;;;5097046;28;20047;-71
2021/05/11 04:38:26;;;;;;;3.75;1.70;;;19.40;45.90;;;;;;5096577;28;20481;-70
2021/05/11 04:40:52;;;;;;;6.25;1.83;;;19.30;46.00;;;;;;5096844;28;20179;-71
2021/05/11 04:43:19;;;;;;;3.83;1.88;;;19.40;45.90;;;;;;5096801;28;20032;-70
2021/05/11 04:45:46;;;;;;;3.72;1.90;;;19.40;46.00;;;;;;5096154;28;20017;-70
2021/05/11 04:48:12;;;;;;;4.10;1.60;;;19.40;46.00;;;;;;5096540;28;20058;-70
2021/05/11 04:50:38;;;;;;;4.05;1.85;;;19.40;46.00;;;;;;5096612;28;20028;-70
2021/05/11 04:53:04;;;;;;;4.97;2.05;;;19.40;46.00;;;;;;5096703;28;20043;-70
2021/05/11 04:55:31;;;;;;;4.18;1.67;;;19.40;46.00;;;;;;5096654;28;20150;-70
2021/05/11 04:57:56;;;;;;;4.03;1.80;;;19.40;46.10;;;;;;5096773;28;20157;-70
2021/05/11 05:00:22;;;;;;;3.65;1.98;;;19.30;46.10;;;;;;5096605;28;20123;-70
2021/05/11 05:02:49;;;;;;;3.05;1.52;;;19.30;46.10;;;;;;5096376;28;20028;-71
2021/05/11 05:05:15;;;;;;;4.15;1.88;;;19.40;46.10;;;;;;5095331;28;20024;-70
2021/05/11 05:07:41;;;;;;;3.97;1.98;;;19.40;46.10;;;;;;5096579;28;20025;-70
2021/05/11 05:10:09;;;;;;;3.75;1.80;;;19.30;46.10;;;;;;5096491;28;20034;-71
2021/05/11 05:12:35;;;;;;;5.80;1.90;;;19.40;46.20;;;;;;5096071;28;20020;-70
2021/05/11 05:15:01;;;;;;;3.42;1.67;;;19.40;46.20;;;;;;5096103;28;20539;-70
2021/05/11 05:17:27;;;;;;;3.72;1.85;;;19.30;46.20;;;;;;5095711;28;20030;-71
2021/05/11 05:19:53;;;;;;;4.65;1.85;;;19.40;46.30;;;;;;5096234;28;20111;-70
2021/05/11 05:22:18;;;;;;;4.35;1.83;;;19.30;46.20;;;;;;5095963;28;20026;-71
2021/05/11 05:24:51;;;;;;;4.43;1.92;;;19.40;46.30;;;;;;5095837;28;20051;-70
2021/05/11 05:27:37;;;;;;;3.85;1.83;;;19.40;46.30;;;;;;5102224;28;20124;-72
2021/05/11 05:30:06;;;;;;;4.28;2.08;;;19.30;46.30;;;;;;5096125;28;20031;-71
2021/05/11 05:32:32;;;;;;;4.50;1.85;;;19.40;46.30;;;;;;5095587;28;20020;-70
2021/05/11 05:34:57;;;;;;;4.30;1.80;;;19.30;46.30;;;;;;5095912;28;20555;-71
2021/05/11 05:37:23;;;;;;;4.03;1.85;;;19.30;46.40;;;;;;5096042;28;20057;-70
2021/05/11 05:39:52;;;;;;;4.60;1.90;;;19.30;46.40;;;;;;5095979;28;20036;-71
2021/05/11 05:42:18;;;;;;;5.05;1.75;;;19.40;46.30;;;;;;5095663;28;20035;-70
2021/05/11 05:44:45;;;;;;;2.78;1.65;;;19.30;46.40;;;;;;5095684;28;20024;-70
2021/05/11 05:47:10;;;;;;;2.92;1.58;;;19.40;46.40;;;;;;5095152;28;20043;-71
2021/05/11 05:49:47;;;;;;;3.40;1.80;;;19.40;46.40;;;;;;5094339;28;20467;-71
2021/05/11 05:52:20;;;;;;;5.03;1.83;;;19.40;46.50;;;;;;5095439;28;20020;-71
2021/05/11 05:54:47;;;;;;;3.67;1.85;;;19.40;46.40;;;;;;5095155;28;20016;-70
2021/05/11 05:57:12;;;;;;;3.08;1.70;;;19.40;46.40;;;;;;5095032;28;20030;-70
2021/05/11 05:59:42;;;;;;;4.18;1.65;;;19.40;46.40;;;;;;5095218;28;20039;-71
2021/05/11 06:02:18;;;;;;;5.93;2.05;;;19.40;46.50;;;;;;5095124;28;20028;-71
2021/05/11 06:04:44;;;;;;;3.33;1.60;;;19.40;46.50;;;;;;5095019;28;20442;-71
2021/05/11 06:07:12;;;;;;;3.80;1.65;;;19.40;46.40;;;;;;5095337;28;20020;-71
2021/05/11 06:09:37;;;;;;;3.53;1.63;;;19.40;46.40;;;;;;5095403;28;20034;-70
2021/05/11 06:12:07;;;;;;;4.03;1.65;;;19.40;46.50;;;;;;5095032;28;20107;-71
2021/05/11 06:14:50;;;;;;;4.18;2.00;;;19.40;46.40;;;;;;5095418;28;20080;-71
2021/05/11 06:17:20;;;;;;;4.38;2.00;;;19.40;46.40;;;;;;5094338;28;20056;-71
2021/05/11 06:19:51;;;;;;;3.25;1.70;;;19.50;46.50;;;;;;5095100;28;20518;-71
2021/05/11 06:22:16;;;;;;;4.13;2.00;;;19.40;46.40;;;;;;5094694;28;20031;-71
2021/05/11 06:24:43;;;;;;;3.60;1.60;;;19.40;46.50;;;;;;5094904;28;20395;-70
2021/05/11 06:27:10;;;;;;;4.45;1.63;;;19.40;46.50;;;;;;5094898;28;20020;-71
2021/05/11 06:29:38;;;;;;;2.20;1.35;;;19.40;46.50;;;;;;5095402;28;20521;-71
2021/05/11 06:32:05;;;;;;;4.63;2.08;;;19.40;46.40;;;;;;5095767;28;20039;-71
2021/05/11 06:34:32;;;;;;;3.42;1.75;;;19.40;46.50;;;;;;5095724;28;20043;-70
2021/05/11 06:36:58;;;;;;;3.20;1.42;;;19.40;46.50;;;;;;5104313;28;20028;-70
2021/05/11 06:39:24;;;;;;;3.72;1.73;;;19.50;46.50;;;;;;5105392;28;20048;-65
2021/05/11 06:41:51;;;;;;;3.58;1.60;;;19.40;46.80;;;;;;5104665;28;20085;-70
2021/05/11 06:54:59;;;;;;;3.08;1.60;;;19.50;46.70;;;;;;5122676;28;20364;-69
2021/05/11 06:57:25;;;;;;;3.85;1.90;;;19.50;46.80;;;;;;5116718;28;20079;-66
2021/05/11 06:59:51;;;;;;;3.80;1.70;;;19.50;46.80;;;;;;5116869;28;20503;-66
2021/05/11 07:02:17;;;;;;;3.90;1.80;;;19.50;46.90;;;;;;5114261;28;20024;-66
2021/05/11 07:04:44;;;;;;;3.30;1.50;;;19.50;46.80;;;;;;5113982;28;20113;-65
2021/05/11 07:07:12;;;;;;;3.35;1.70;;;19.50;46.80;;;;;;5114479;28;20482;-65
2021/05/11 07:14:58;;;;;;;3.38;1.58;;;19.50;46.80;;;;;;5114143;28;20517;-66
2021/05/11 07:17:24;;;;;;;4.90;1.70;;;19.50;46.80;;;;;;5115415;28;20035;-65
2021/05/11 07:19:50;;;;;;;3.00;1.50;;;19.50;46.80;;;;;;5118866;28;20235;-65
2021/05/11 07:22:15;;;;;;;4.57;1.63;;;19.50;46.80;;;;;;5113828;28;20028;-65
2021/05/11 07:24:43;;;;;;;3.20;1.25;;;19.50;46.70;;;;;;5113264;28;20073;-66
2021/05/11 07:32:01;;;;;;;4.28;1.88;;;19.50;46.80;;;;;;5114075;28;20020;-67
2021/05/11 07:34:28;;;;;;;3.47;1.63;;;19.50;46.80;;;;;;5113946;28;20020;-65
2021/05/11 07:36:53;;;;;;;4.38;1.80;;;19.50;46.80;;;;;;5114356;28;20055;-66
2021/05/11 07:39:21;;;;;;;3.00;1.50;;;19.60;46.80;;;;;;5114386;28;20074;-65
2021/05/11 07:41:46;;;;;;;4.18;1.67;;;19.60;46.80;;;;;;5114434;28;20024;-66
2021/05/11 07:44:13;;;;;;;4.57;1.90;;;19.50;46.90;;;;;;5114421;28;20032;-67
2021/05/11 07:46:48;;;;;;;4.28;2.03;;;19.60;46.80;;;;;;5115764;28;20030;-66
2021/05/11 07:52:11;;;;;;;2.58;1.48;;;19.60;46.90;;;;;;5112711;28;20023;-65
2021/05/11 08:03:08;;;;;;;3.92;1.67;;;19.60;46.80;;;;;;5114369;28;20035;-65
2021/05/11 08:14:21;;;;;;;3.78;1.70;;;19.70;46.70;;;;;;5113636;28;20076;-65
2021/05/11 08:16:22;;;;;;;3.03;1.50;;;19.80;46.80;;;;;;5113354;28;20492;-66
2021/05/11 08:19:43;;;;;;;3.10;1.48;;;19.70;46.60;;;;;;5112951;28;20044;-66
2021/05/11 08:29:45;;;;;;;3.35;1.50;;;19.90;46.60;;;;;;5113011;28;20498;-66
2021/05/11 08:32:11;;;;;;;3.72;1.50;;;19.90;46.60;;;;;;5112955;28;20058;-66
2021/05/11 08:34:36;;;;;;;3.05;1.55;;;19.80;46.60;;;;;;5113338;28;20061;-66
2021/05/11 08:37:02;;;;;;;4.70;1.70;;;19.80;46.60;;;;;;5113246;28;20386;-66
2021/05/11 08:39:27;;;;;;;2.92;1.50;;;19.90;46.60;;;;;;5112138;28;20142;-66
2021/05/11 08:41:53;;;;;;;6.22;2.13;;;19.90;46.60;;;;;;5116249;28;20023;-66
2021/05/11 08:44:19;;;;;;;4.70;2.00;;;20.00;46.60;;;;;;5117081;28;20046;-66
2021/05/11 08:46:45;;;;;;;3.67;1.60;;;20.00;46.60;;;;;;5116503;28;20027;-66
2021/05/11 08:49:13;;;;;;;4.20;1.42;;;20.00;46.60;;;;;;5113201;28;20082;-64
2021/05/11 08:51:56;;;;;;;4.13;1.67;;;20.00;46.60;;;;;;5104975;28;20429;-65
2021/05/11 08:54:32;;;;;;;3.20;1.50;;;20.00;46.60;;;;;;5095777;28;20028;-68
2021/05/11 09:26:57;;;;;;;4.18;1.75;;;20.90;45.30;;;;;;5095154;28;20375;-66
2021/05/11 09:54:41;;;;;;;5.18;1.38;;;21.50;44.70;;;;;;5094463;28;20024;-63
2021/05/11 10:46:58;;;;;;;2.50;1.20;;;22.20;44.50;;;;;;5093851;28;20017;-67
2021/05/11 10:49:37;;;;;;;3.28;1.38;;;22.20;44.50;;;;;;5094037;28;20074;-68
2021/05/11 10:52:29;;;;;;;3.20;1.30;;;22.20;44.50;;;;;;5098929;28;20054;-66
2021/05/11 10:55:08;;;;;;;1.95;1.05;;;22.30;44.50;;;;;;5093777;28;20063;-68
2021/05/11 10:57:52;;;;;;;2.97;1.40;;;22.30;44.40;;;;;;5093388;28;20099;-67
2021/05/11 11:00:22;;;;;;;2.55;1.27;;;22.30;44.50;;;;;;5093904;28;20123;-65
2021/05/11 11:03:11;;;;;;;2.50;1.17;;;22.30;44.50;;;;;;5093781;28;20033;-67
2021/05/11 11:05:51;;;;;;;1.80;1.05;;;22.30;44.50;;;;;;5093842;28;20028;-68
2021/05/11 11:08:40;;;;;;;2.38;1.10;;;22.40;44.40;;;;;;5093203;28;20107;-68
2021/05/11 11:11:13;;;;;;;2.50;1.30;;;22.40;44.50;;;;;;5093457;28;20023;-65
2021/05/11 11:13:49;;;;;;;2.05;1.05;;;22.40;44.50;;;;;;5094077;28;20024;-66
2021/05/11 11:16:17;;;;;;;3.80;1.38;;;22.50;44.50;;;;;;5093772;28;20107;-64
2021/05/11 11:18:47;;;;;;;5.28;1.65;;;22.50;44.40;;;;;;5093118;28;20426;-66
2021/05/11 11:23:54;;;;;;;2.97;1.45;;;22.50;44.50;;;;;;5093178;28;20044;-64
2021/05/11 11:26:41;;;;;;;2.03;1.08;;;22.50;44.50;;;;;;5093379;28;20472;-66
2021/05/11 11:29:09;;;;;;;4.13;1.40;;;22.50;44.50;;;;;;5093183;28;20111;-65
2021/05/11 11:31:39;;;;;;;2.67;1.20;;;22.50;44.50;;;;;;5093075;28;20024;-65
2021/05/11 11:34:14;;;;;;;2.72;1.27;;;22.60;44.50;;;;;;5093938;28;20028;-65
2021/05/11 11:36:40;;;;;;;1.77;1.00;;;22.60;44.50;;;;;;5093300;28;20368;-65
2021/05/11 11:39:17;;;;;;;2.63;1.10;;;22.60;44.50;;;;;;5092914;28;20043;-65
2021/05/11 11:41:43;;;;;;;2.80;1.23;;;22.60;44.60;;;;;;5093790;28;20036;-66
2021/05/11 11:44:11;;;;;;;2.88;1.23;;;22.60;44.50;;;;;;5093202;28;20024;-65
2021/05/11 11:46:37;;;;;;;2.38;1.00;;;22.70;44.50;;;;;;5091696;28;20078;-67
2021/05/11 11:49:08;;;;;;;2.47;1.02;;;22.70;44.50;;;;;;5093199;28;20070;-66
2021/05/11 11:51:35;;;;;;;2.55;1.02;;;22.70;44.50;;;;;;5093165;28;20056;-66
2021/05/11 11:54:25;;;;;;;2.85;1.30;;;22.70;44.50;;;;;;5093301;28;20028;-66
2021/05/11 11:59:33;;;;;;;2.45;1.00;;;22.70;44.50;;;;;;5092844;28;20032;-68
2021/05/11 12:02:02;;;;;;;3.40;1.20;;;22.80;44.50;;;;;;5092832;28;20386;-65
2021/05/11 12:04:28;;;;;;;2.03;1.00;;;22.80;44.60;;;;;;5093770;28;20471;-65
2021/05/11 12:07:02;;;;;;;2.53;0.90;;;22.90;44.60;;;;;;5092748;28;20058;-65
2021/05/11 12:09:27;;;;;;;1.45;0.80;;;22.90;44.50;;;;;;5092996;28;20024;-63
2021/05/11 12:11:53;;;;;;;2.22;1.25;;;22.90;44.40;;;;;;5092757;28;20028;-63
2021/05/11 12:14:18;;;;;;;2.25;0.93;;;22.90;44.50;;;;;;5092600;28;20068;-64
2021/05/11 12:16:46;;;;;;;1.55;0.88;;;22.90;44.50;;;;;;5096587;28;20032;-63
2021/05/11 12:19:19;;;;;;;3.20;1.30;;;22.80;44.50;;;;;;5096618;28;20427;-63
2021/05/11 12:22:00;;;;;;;1.88;1.10;;;22.90;44.50;;;;;;5096927;28;20076;-63
2021/05/11 12:24:34;;;;;;;3.42;1.17;;;22.80;44.60;;;;;;5096532;28;20035;-63
2021/05/11 12:27:22;;;;;;;1.65;0.82;;;22.80;44.60;;;;;;5096779;28;20016;-63
2021/05/11 12:29:58;;;;;;;2.65;1.23;;;22.80;44.60;;;;;;5097276;28;20040;-63
2021/05/11 12:32:24;;;;;;;2.88;1.08;;;22.70;44.70;;;;;;5096934;28;20051;-63
2021/05/11 12:35:09;;;;;;;2.78;1.20;;;22.70;44.70;;;;;;5096643;28;20577;-63
2021/05/11 12:37:56;;;;;;;2.05;0.93;;;22.70;44.70;;;;;;5096794;28;20099;-63
2021/05/11 12:40:32;;;;;;;3.22;1.20;;;22.70;44.80;;;;;;5096637;28;20024;-64
2021/05/11 12:43:03;;;;;;;2.35;1.10;;;22.70;44.70;;;;;;5096773;28;20024;-63
2021/05/11 12:45:35;;;;;;;2.22;1.08;;;22.60;44.70;;;;;;5096720;28;20052;-64
2021/05/11 12:48:03;;;;;;;2.20;0.88;;;22.60;44.70;;;;;;5096384;28;20020;-63
2021/05/11 12:50:33;;;;;;;1.92;1.02;;;22.60;44.80;;;;;;5096388;28;20024;-63
2021/05/11 12:53:17;;;;;;;2.22;0.95;;;22.60;44.70;;;;;;5096497;28;20028;-63
2021/05/11 13:21:01;;;;;;;2.95;1.25;;;22.40;44.90;;;;;;5105675;28;20036;-64
2021/05/11 13:25:38;;;;;;;2.17;1.20;;;22.40;44.90;;;;;;5104540;28;20051;-63
2021/05/11 13:33:34;;;;;;;1.92;0.88;;;22.30;44.90;;;;;;5096333;28;20111;-64
2021/05/11 13:36:00;;;;;;;2.30;0.90;;;22.20;45.00;;;;;;5095857;28;20376;-64
2021/05/11 13:38:26;;;;;;;2.00;1.05;;;22.30;44.90;;;;;;5095425;28;20028;-64
2021/05/11 13:40:52;;;;;;;2.75;1.00;;;22.30;45.00;;;;;;5095596;28;20028;-64
2021/05/11 13:43:18;;;;;;;2.67;1.17;;;22.30;45.10;;;;;;5095638;28;20038;-64
2021/05/11 13:45:43;;;;;;;2.70;1.00;;;22.20;45.10;;;;;;5095570;28;20020;-64
2021/05/11 13:48:20;;;;;;;1.80;0.80;;;22.20;45.20;;;;;;5095501;28;20024;-64
2021/05/11 13:51:04;;;;;;;2.08;1.02;;;22.20;45.10;;;;;;5095257;28;20019;-64
2021/05/11 13:53:34;;;;;;;2.42;1.02;;;22.20;45.20;;;;;;5095293;28;20016;-64
2021/05/11 14:04:07;;;;;;;4.55;0.80;;;22.10;45.30;;;;;;5095425;28;20578;-65
2021/05/11 14:06:33;;;;;;;2.80;1.13;;;22.10;45.40;;;;;;5095334;28;20028;-64
2021/05/11 14:08:59;;;;;;;1.77;1.00;;;22.00;45.40;;;;;;5094808;28;20433;-63
2021/05/11 14:11:25;;;;;;;1.85;1.08;;;22.10;45.40;;;;;;5094879;28;20043;-63
2021/05/11 14:13:51;;;;;;;2.83;1.10;;;22.00;45.50;;;;;;5094931;28;20028;-63
2021/05/11 14:16:17;;;;;;;2.00;1.02;;;22.00;45.50;;;;;;5094802;28;20430;-63
2021/05/11 14:18:42;;;;;;;1.15;0.70;;;22.00;45.50;;;;;;5094171;28;20074;-63
2021/05/11 14:21:08;;;;;;;2.88;1.00;;;22.00;45.50;;;;;;5094741;28;20464;-63
2021/05/11 14:23:34;;;;;;;2.08;1.00;;;22.00;45.50;;;;;;5094538;28;20027;-63
2021/05/11 14:26:00;;;;;;;1.17;0.73;;;22.00;45.60;;;;;;5094650;28;20043;-63
2021/05/11 14:28:25;;;;;;;1.33;0.80;;;22.00;45.60;;;;;;5094505;28;20012;-63
2021/05/11 14:30:51;;;;;;;2.72;1.00;;;21.90;45.60;;;;;;5094835;28;20038;-64
2021/05/11 14:33:17;;;;;;;2.10;0.98;;;21.90;45.60;;;;;;5094709;28;20536;-63
2021/05/11 14:35:42;;;;;;;1.50;0.90;;;21.90;45.60;;;;;;5094608;28;20063;-63
2021/05/11 14:38:08;;;;;;;1.80;0.80;;;21.90;45.60;;;;;;5093290;28;20034;-63
2021/05/11 14:40:34;;;;;;;1.95;0.93;;;21.80;45.60;;;;;;5094348;28;20054;-63
2021/05/11 14:43:00;;;;;;;1.75;0.90;;;21.80;45.60;;;;;;5092887;28;20463;-63
2021/05/11 14:45:29;;;;;;;2.70;0.90;;;21.80;45.60;;;;;;5094136;28;20032;-63
2021/05/11 14:47:54;;;;;;;1.58;0.70;;;21.80;45.70;;;;;;5093600;28;20020;-64
2021/05/11 14:50:21;;;;;;;3.08;1.08;;;21.80;45.70;;;;;;5094166;28;20081;-64
2021/05/11 14:52:51;;;;;;;2.13;0.90;;;21.80;45.70;;;;;;5094768;28;20062;-64
2021/05/11 14:55:19;;;;;;;2.55;0.80;;;21.80;45.80;;;;;;5094130;28;20074;-64
2021/05/11 14:57:45;;;;;;;2.05;0.88;;;21.70;45.80;;;;;;5093670;28;20028;-63
2021/05/11 15:00:11;;;;;;;2.50;1.05;;;21.70;45.80;;;;;;5093914;28;20032;-64
2021/05/11 15:02:37;;;;;;;2.97;0.82;;;21.70;45.80;;;;;;5094011;28;20028;-64
2021/05/11 15:05:03;;;;;;;1.67;0.80;;;21.70;45.80;;;;;;5093713;28;20050;-64
2021/05/11 15:07:29;;;;;;;2.38;0.80;;;21.70;45.90;;;;;;5093587;28;20098;-63
2021/05/11 15:09:55;;;;;;;2.63;1.00;;;21.60;45.90;;;;;;5093613;28;20471;-63
2021/05/11 15:12:20;;;;;;;1.42;0.80;;;21.60;45.90;;;;;;5093317;28;20499;-63
2021/05/11 15:14:46;;;;;;;1.63;0.80;;;21.60;46.00;;;;;;5093337;28;20456;-63
2021/05/11 15:20:01;;;;;;;1.45;0.80;;;21.60;46.00;;;;;;5064264;28;20067;-63
2021/05/11 15:22:27;;;;;;;1.75;0.90;;;21.50;46.00;;;;;;5093791;28;20468;-63
2021/05/11 15:24:54;;;;;;;2.15;0.90;;;21.50;46.00;;;;;;5093270;28;20093;-63
2021/05/11 15:27:20;;;;;;;2.22;0.80;;;21.50;46.00;;;;;;5093374;28;20028;-63
2021/05/11 15:29:46;;;;;;;4.10;1.20;;;21.50;46.10;;;;;;5093358;28;20382;-63
2021/05/11 15:32:37;;;;;;;2.45;0.88;;;21.50;46.10;;;;;;5093400;28;20056;-63
2021/05/11 15:35:05;;;;;;;2.72;1.30;;;21.50;46.10;;;;;;5093291;28;20097;-63
2021/05/11 15:37:31;;;;;;;2.92;1.00;;;21.50;46.20;;;;;;5093197;28;20048;-63
2021/05/11 15:39:56;;;;;;;1.90;0.80;;;21.50;46.20;;;;;;5093695;28;20094;-63
2021/05/11 15:42:22;;;;;;;3.00;0.80;;;21.40;46.20;;;;;;5093413;28;20467;-63
2021/05/11 15:44:48;;;;;;;2.53;0.85;;;21.40;46.20;;;;;;5093295;28;20507;-64
2021/05/11 15:47:13;;;;;;;2.47;0.98;;;21.40;46.20;;;;;;5096009;28;20032;-63
2021/05/11 15:49:43;;;;;;;1.92;0.88;;;21.40;46.20;;;;;;5097103;28;20035;-63
2021/05/11 15:52:09;;;;;;;1.85;1.00;;;21.40;46.30;;;;;;5097177;28;20035;-63
2021/05/11 15:54:34;;;;;;;1.70;0.80;;;21.40;46.30;;;;;;5097603;28;20024;-63
2021/05/11 15:57:00;;;;;;;2.00;1.02;;;21.30;46.30;;;;;;5097524;28;20434;-63
2021/05/11 15:59:26;;;;;;;2.38;1.00;;;21.30;46.40;;;;;;5097577;28;20060;-63
2021/05/11 16:01:51;;;;;;;2.33;1.08;;;21.30;46.40;;;;;;5097274;28;20028;-63
2021/05/11 16:04:17;;;;;;;2.22;0.93;;;21.30;46.30;;;;;;5097145;28;20102;-63
2021/05/11 16:06:42;;;;;;;1.48;0.95;;;21.30;46.40;;;;;;5097070;28;20107;-63
2021/05/11 16:09:08;;;;;;;1.40;0.68;;;21.20;46.40;;;;;;5097087;28;20166;-63
2021/05/11 16:11:34;;;;;;;1.38;0.70;;;21.20;46.40;;;;;;5097524;28;20020;-63
2021/05/11 16:13:59;;;;;;;1.83;0.80;;;21.20;46.40;;;;;;5097031;28;20017;-63
2021/05/11 16:16:25;;;;;;;2.53;1.00;;;21.20;46.40;;;;;;5097285;28;20122;-63
2021/05/11 16:18:51;;;;;;;2.28;0.93;;;21.20;46.40;;;;;;5097031;28;20032;-63
2021/05/11 16:21:16;;;;;;;1.73;1.00;;;21.20;46.40;;;;;;5097111;28;20024;-64
2021/05/11 16:23:42;;;;;;;2.42;0.90;;;21.10;46.40;;;;;;5096659;28;20102;-64
2021/05/11 16:26:07;;;;;;;2.22;0.90;;;21.10;46.40;;;;;;5097093;28;20028;-63
2021/05/11 16:28:33;;;;;;;2.13;0.88;;;21.10;46.40;;;;;;5096939;28;20027;-64
2021/05/11 16:30:59;;;;;;;2.30;0.93;;;21.10;46.50;;;;;;5096875;28;20039;-64
2021/05/11 16:33:25;;;;;;;1.88;0.90;;;21.10;46.50;;;;;;5096751;28;20020;-64
2021/05/11 16:35:51;;;;;;;2.40;0.80;;;21.00;46.50;;;;;;5096949;28;20023;-63
2021/05/11 16:38:16;;;;;;;1.88;1.00;;;21.00;46.50;;;;;;5096787;28;20051;-64
2021/05/11 16:40:42;;;;;;;1.73;0.88;;;21.00;46.60;;;;;;5096569;28;20028;-63
2021/05/11 16:43:07;;;;;;;2.13;1.38;;;21.00;46.50;;;;;;5096486;28;20035;-64
2021/05/11 16:45:35;;;;;;;1.55;1.00;;;21.00;46.50;;;;;;5096830;28;20020;-64
2021/05/11 16:48:00;;;;;;;1.85;0.88;;;21.00;46.60;;;;;;5096094;28;20012;-63
2021/05/11 16:50:29;;;;;;;2.42;0.90;;;21.00;46.60;;;;;;5096640;28;20027;-63
2021/05/11 16:52:58;;;;;;;1.45;0.85;;;20.90;46.60;;;;;;5095597;28;20484;-63
2021/05/11 16:55:24;;;;;;;1.90;0.85;;;20.90;46.60;;;;;;5096656;28;20031;-64
2021/05/11 16:57:50;;;;;;;2.95;0.95;;;20.90;46.70;;;;;;5096110;28;20432;-64
2021/05/11 17:00:18;;;;;;;2.13;1.00;;;20.90;46.60;;;;;;5095850;28;20032;-64
2021/05/11 17:02:44;;;;;;;1.60;0.80;;;20.90;46.70;;;;;;5095105;28;20480;-64
2021/05/11 17:05:11;;;;;;;2.10;1.00;;;20.90;46.80;;;;;;5095877;28;20034;-63
2021/05/11 17:07:37;;;;;;;3.67;1.13;;;20.90;46.70;;;;;;5096014;28;20537;-64